Time;durP1;ratioP1;P1;durP2;ratioP2;P2;SDS_P1;SDS_P2;PMS_P1;PMS_P2;Temp;Humidity;BMP_temperature;BMP_pressure;BME280_temperature;BME280_humidity;BME280_pressure;Samples;Min_cycle;Max_cycle;Signal;HPM_P1;HPM_P2
2024/03/21 00:03:06;;;;;;;;;24.00;21.50;;;;;;;;6491337;31;8934;-55
2024/03/21 00:09:09;;;;;;;;;24.25;23.50;;;;;;;;6492598;31;8891;-58
2024/03/21 00:15:10;;;;;;;;;27.00;25.25;;;;;;;;6490735;39;8943;-56
2024/03/21 00:21:13;;;;;;;;;28.75;26.00;;;;;;;;6491500;39;8978;-57
2024/03/21 00:27:16;;;;;;;;;27.00;24.75;;;;;;;;6491513;39;8998;-56
2024/03/21 00:33:18;;;;;;;;;26.25;23.50;;;;;;;;6491393;39;9046;-54
2024/03/21 00:39:19;;;;;;;;;26.75;24.50;;;;;;;;6491941;39;8883;-57
2024/03/21 00:45:22;;;;;;;;;20.00;20.00;;;;;;;;6491261;39;8867;-57
2024/03/21 00:51:24;;;;;;;;;23.00;21.50;;;;;;;;6491549;39;8915;-57
2024/03/21 00:57:30;;;;;;;;;23.00;20.25;;;;;;;;6491572;39;8875;-56
2024/03/21 01:03:34;;;;;;;;;19.50;19.00;;;;;;;;6492751;31;8919;-55
2024/03/21 01:09:36;;;;;;;;;20.75;19.75;;;;;;;;6493328;39;8938;-56
2024/03/21 01:15:43;;;;;;;;;17.25;14.00;;;;;;;;6491662;46;8915;-55
2024/03/21 01:21:45;;;;;;;;;24.00;23.00;;;;;;;;6493311;39;8904;-57
2024/03/21 01:27:48;;;;;;;;;27.25;26.25;;;;;;;;6493208;39;8975;-56
2024/03/21 01:33:51;;;;;;;;;26.00;21.25;;;;;;;;6492326;46;8947;-54
2024/03/21 01:39:54;;;;;;;;;27.00;23.25;;;;;;;;6493134;39;8867;-58
2024/03/21 01:46:25;;;;;;;;;21.50;20.25;;;;;;;;6492676;39;8855;-54
2024/03/21 01:52:29;;;;;;;;;21.75;20.75;;;;;;;;6492904;39;8999;-54
2024/03/21 01:58:35;;;;;;;;;17.50;17.50;;;;;;;;6492400;46;8887;-55
2024/03/21 02:04:37;;;;;;;;;16.00;15.75;;;;;;;;6492244;39;9038;-56
2024/03/21 02:10:41;;;;;;;;;17.50;15.25;;;;;;;;6491939;46;8926;-55
2024/03/21 02:16:43;;;;;;;;;9.50;9.00;;;;;;;;6491631;46;8923;-57
2024/03/21 02:22:45;;;;;;;;;9.25;9.25;;;;;;;;6491792;31;9164;-57
2024/03/21 02:28:50;;;;;;;;;13.75;13.50;;;;;;;;6492460;39;8832;-54
2024/03/21 02:34:55;;;;;;;;;11.75;9.75;;;;;;;;6492323;39;9046;-55
2024/03/21 02:40:58;;;;;;;;;7.50;5.00;;;;;;;;6492398;39;8887;-54
2024/03/21 02:47:03;;;;;;;;;12.00;10.50;;;;;;;;6491791;39;8921;-54
2024/03/21 02:53:04;;;;;;;;;15.25;13.50;;;;;;;;6492629;39;9583;-57
2024/03/21 02:59:06;;;;;;;;;10.75;9.50;;;;;;;;6493092;31;9022;-55
2024/03/21 03:05:11;;;;;;;;;13.00;12.00;;;;;;;;6491813;39;9014;-58
2024/03/21 03:11:13;;;;;;;;;11.75;11.75;;;;;;;;6492358;39;8985;-53
2024/03/21 03:17:16;;;;;;;;;11.50;11.50;;;;;;;;6492641;39;8950;-56
2024/03/21 03:23:17;;;;;;;;;12.00;10.00;;;;;;;;6491533;46;8994;-56
2024/03/21 03:29:18;;;;;;;;;8.75;8.25;;;;;;;;6492443;39;9069;-57
2024/03/21 03:41:57;;;;;;;;;9.50;9.50;;;;;;;;6489272;39;9010;-57
2024/03/21 03:48:01;;;;;;;;;10.00;8.75;;;;;;;;6491222;46;8891;-57
2024/03/21 03:54:05;;;;;;;;;8.50;8.50;;;;;;;;6492475;31;9061;-53
2024/03/21 04:06:57;;;;;;;;;7.50;7.50;;;;;;;;6478341;46;9042;-60
2024/03/21 04:13:01;;;;;;;;;8.25;8.25;;;;;;;;6492850;46;9887;-61
2024/03/21 04:19:03;;;;;;;;;4.75;4.75;;;;;;;;6493474;39;8882;-61
2024/03/21 04:25:06;;;;;;;;;8.75;6.50;;;;;;;;6493975;39;8945;-60
2024/03/21 04:31:10;;;;;;;;;7.75;7.75;;;;;;;;6493394;39;8897;-61
2024/03/21 04:37:17;;;;;;;;;5.00;5.00;;;;;;;;6493105;46;8879;-60
2024/03/21 04:43:19;;;;;;;;;12.75;10.00;;;;;;;;6493165;39;8932;-60
2024/03/21 04:49:23;;;;;;;;;9.00;9.00;;;;;;;;6493808;39;8854;-61
2024/03/21 04:55:27;;;;;;;;;9.00;9.00;;;;;;;;6492873;39;8956;-61
2024/03/21 05:01:30;;;;;;;;;10.50;10.00;;;;;;;;6492192;47;8950;-61
2024/03/21 05:07:34;;;;;;;;;9.50;9.00;;;;;;;;6492907;39;8912;-61
2024/03/21 05:13:35;;;;;;;;;13.50;9.25;;;;;;;;6491434;47;8924;-61
2024/03/21 05:19:39;;;;;;;;;11.50;9.50;;;;;;;;6492300;39;8926;-61
2024/03/21 05:25:43;;;;;;;;;8.50;8.50;;;;;;;;6491285;47;8877;-62
2024/03/21 05:31:53;;;;;;;;;11.25;10.50;;;;;;;;6490697;31;8994;-62
2024/03/21 05:38:01;;;;;;;;;13.75;13.25;;;;;;;;6491653;31;9023;-61
2024/03/21 05:44:05;;;;;;;;;12.75;12.75;;;;;;;;6491137;46;8937;-60
2024/03/21 05:50:08;;;;;;;;;11.50;11.50;;;;;;;;6493180;31;8900;-62
2024/03/21 05:56:18;;;;;;;;;12.75;12.75;;;;;;;;6493071;31;8968;-62
2024/03/21 06:02:26;;;;;;;;;9.00;9.00;;;;;;;;6492871;39;9040;-63
2024/03/21 06:09:08;;;;;;;;;20.00;18.00;;;;;;;;6493026;39;8948;-62
2024/03/21 06:15:17;;;;;;;;;15.25;11.75;;;;;;;;6492281;39;8935;-63
2024/03/21 06:21:22;;;;;;;;;15.75;15.75;;;;;;;;6493297;39;8894;-64
2024/03/21 06:27:27;;;;;;;;;14.75;13.50;;;;;;;;6492342;39;8962;-62
2024/03/21 06:33:39;;;;;;;;;16.75;15.75;;;;;;;;6491951;46;8925;-62
2024/03/21 06:39:44;;;;;;;;;15.50;15.50;;;;;;;;6491947;39;8934;-63
2024/03/21 06:45:57;;;;;;;;;21.50;19.25;;;;;;;;6491369;39;8887;-63
2024/03/21 06:52:06;;;;;;;;;17.25;15.25;;;;;;;;6492835;39;8960;-64
2024/03/21 06:58:11;;;;;;;;;26.50;21.75;;;;;;;;6492571;39;8997;-62
2024/03/21 07:04:27;;;;;;;;;26.00;26.00;;;;;;;;6492480;39;8973;-61
2024/03/21 07:10:43;;;;;;;;;27.00;26.00;;;;;;;;6491444;46;8868;-64
2024/03/21 07:16:57;;;;;;;;;23.00;21.75;;;;;;;;6492600;46;8892;-62
2024/03/21 07:23:04;;;;;;;;;18.25;18.25;;;;;;;;6492004;31;8982;-63
2024/03/21 07:29:15;;;;;;;;;20.00;20.00;;;;;;;;6490917;31;8929;-63
2024/03/21 07:35:40;;;;;;;;;14.75;14.75;;;;;;;;6492161;46;8922;-63
2024/03/21 07:41:53;;;;;;;;;11.50;11.50;;;;;;;;6487221;39;9043;-62
2024/03/21 07:48:18;;;;;;;;;22.67;21.33;;;;;;;;6491470;39;9012;-62
2024/03/21 07:54:53;;;;;;;;;19.50;16.00;;;;;;;;6490943;31;8981;-64
2024/03/21 08:01:44;;;;;;;;;35.25;31.25;;;;;;;;6489132;39;9093;-62
2024/03/21 08:14:40;;;;;;;;;35.75;33.00;;;;;;;;6491568;31;8978;-67
2024/03/21 08:21:10;;;;;;;;;27.00;27.00;;;;;;;;6490524;39;8927;-64
2024/03/21 08:27:19;;;;;;;;;16.25;13.50;;;;;;;;6492326;39;8931;-63
2024/03/21 08:33:30;;;;;;;;;14.50;13.00;;;;;;;;6490982;31;8939;-63
2024/03/21 08:39:42;;;;;;;;;16.00;16.00;;;;;;;;6492183;31;8844;-65
2024/03/21 08:45:47;;;;;;;;;12.75;12.75;;;;;;;;6491117;39;8921;-64
2024/03/21 08:51:56;;;;;;;;;19.00;19.00;;;;;;;;6490675;39;9057;-64
2024/03/21 08:58:06;;;;;;;;;10.33;9.67;;;;;;;;6492127;39;8941;-64
2024/03/21 09:04:14;;;;;;;;;16.75;13.75;;;;;;;;6490440;47;9208;-63
2024/03/21 09:10:21;;;;;;;;;15.00;13.75;;;;;;;;6491999;39;8890;-64
2024/03/21 09:16:36;;;;;;;;;18.50;14.75;;;;;;;;6490919;39;8932;-64
2024/03/21 09:22:51;;;;;;;;;12.25;12.00;;;;;;;;6490969;39;9602;-63
2024/03/21 09:28:56;;;;;;;;;12.00;11.25;;;;;;;;6492416;46;8937;-64
2024/03/21 09:35:09;;;;;;;;;13.50;12.75;;;;;;;;6491977;46;8982;-63
2024/03/21 09:41:17;;;;;;;;;12.00;12.00;;;;;;;;6492376;39;8913;-63
2024/03/21 09:47:27;;;;;;;;;16.00;13.25;;;;;;;;6489894;39;8957;-64
2024/03/21 09:53:36;;;;;;;;;17.75;15.75;;;;;;;;6491336;39;8930;-63
2024/03/21 09:59:50;;;;;;;;;53.50;44.75;;;;;;;;6492326;39;8989;-63
2024/03/21 10:06:12;;;;;;;;;14.75;14.75;;;;;;;;6492759;39;8905;-64
2024/03/21 10:12:51;;;;;;;;;16.50;15.25;;;;;;;;6489705;46;8941;-62
2024/03/21 10:19:03;;;;;;;;;17.00;16.25;;;;;;;;6492556;31;8877;-65
2024/03/21 10:25:50;;;;;;;;;32.00;30.00;;;;;;;;6490567;31;8980;-63
2024/03/21 10:32:23;;;;;;;;;16.75;14.50;;;;;;;;6492458;39;9095;-64
2024/03/21 10:38:36;;;;;;;;;12.25;12.00;;;;;;;;6491715;46;8934;-63
2024/03/21 10:44:56;;;;;;;;;14.00;14.00;;;;;;;;6491694;39;8875;-63
2024/03/21 10:51:12;;;;;;;;;17.25;13.00;;;;;;;;6491174;39;9030;-64
2024/03/21 10:57:34;;;;;;;;;22.50;18.00;;;;;;;;6490759;31;9732;-63
2024/03/21 11:03:58;;;;;;;;;13.25;11.75;;;;;;;;6492621;46;8985;-63
2024/03/21 11:10:07;;;;;;;;;14.75;12.50;;;;;;;;6491047;46;8986;-61
2024/03/21 11:16:26;;;;;;;;;13.33;10.00;;;;;;;;6492688;39;9008;-64
2024/03/21 11:22:49;;;;;;;;;14.67;14.00;;;;;;;;6491450;46;8933;-63
2024/03/21 11:28:58;;;;;;;;;14.75;13.75;;;;;;;;6491410;46;8877;-64
2024/03/21 11:35:05;;;;;;;;;18.75;17.25;;;;;;;;6491136;39;8951;-63
2024/03/21 11:41:20;;;;;;;;;21.50;19.25;;;;;;;;6491277;39;9074;-64
2024/03/21 11:47:28;;;;;;;;;19.50;19.50;;;;;;;;6491550;39;9751;-64
2024/03/21 11:53:36;;;;;;;;;17.33;17.00;;;;;;;;6490471;46;9083;-64
2024/03/21 11:59:54;;;;;;;;;22.67;20.33;;;;;;;;6491542;46;9115;-63
2024/03/21 12:06:17;;;;;;;;;23.00;20.50;;;;;;;;6491981;31;9001;-61
2024/03/21 12:12:23;;;;;;;;;30.00;27.50;;;;;;;;6492291;39;9050;-65
2024/03/21 12:18:31;;;;;;;;;20.00;17.00;;;;;;;;6491004;39;9040;-64
2024/03/21 12:24:46;;;;;;;;;23.25;19.50;;;;;;;;6490178;31;8889;-64
2024/03/21 12:31:07;;;;;;;;;20.50;18.75;;;;;;;;6486169;39;8963;-64
2024/03/21 12:37:19;;;;;;;;;20.75;18.75;;;;;;;;6488751;31;9135;-66
2024/03/21 12:43:41;;;;;;;;;20.75;20.75;;;;;;;;6491162;39;8922;-66
2024/03/21 12:49:55;;;;;;;;;21.00;19.25;;;;;;;;6481997;39;8936;-68
2024/03/21 12:56:12;;;;;;;;;27.75;25.75;;;;;;;;6490429;31;8995;-63
2024/03/21 13:02:54;;;;;;;;;26.75;26.00;;;;;;;;6490724;39;9013;-63
2024/03/21 13:09:13;;;;;;;;;20.75;20.75;;;;;;;;6491159;31;8945;-64
2024/03/21 13:15:35;;;;;;;;;23.75;20.00;;;;;;;;6489465;39;8958;-64
2024/03/21 13:21:38;;;;;;;;;17.75;17.75;;;;;;;;6490780;31;8905;-63
2024/03/21 13:27:50;;;;;;;;;23.25;21.75;;;;;;;;6489890;39;9533;-64
2024/03/21 13:33:58;;;;;;;;;23.50;22.25;;;;;;;;6491376;39;8849;-64
2024/03/21 13:40:31;;;;;;;;;23.75;23.75;;;;;;;;6490865;39;9084;-64
2024/03/21 13:47:24;;;;;;;;;19.50;19.00;;;;;;;;6491339;39;8961;-63
2024/03/21 14:00:01;;;;;;;;;19.00;17.50;;;;;;;;6490287;39;8885;-65
2024/03/21 14:06:34;;;;;;;;;17.00;17.00;;;;;;;;6486316;31;9102;-64
2024/03/21 14:12:48;;;;;;;;;15.00;15.00;;;;;;;;6487788;39;9521;-64
2024/03/21 14:19:11;;;;;;;;;25.75;20.25;;;;;;;;6487739;39;8949;-64
2024/03/21 14:25:39;;;;;;;;;22.50;20.25;;;;;;;;6489045;46;9055;-63
2024/03/21 14:31:45;;;;;;;;;20.75;18.00;;;;;;;;6489738;39;8902;-64
2024/03/21 14:37:52;;;;;;;;;17.75;17.75;;;;;;;;6492962;31;8922;-61
2024/03/21 14:44:08;;;;;;;;;21.75;20.25;;;;;;;;6492715;46;9025;-67
2024/03/21 14:50:22;;;;;;;;;23.50;19.25;;;;;;;;6491747;31;9641;-62
2024/03/21 14:56:46;;;;;;;;;23.75;19.00;;;;;;;;6493004;39;8957;-63
2024/03/21 15:03:01;;;;;;;;;22.50;21.50;;;;;;;;6492064;39;8988;-64
2024/03/21 15:09:09;;;;;;;;;25.00;24.25;;;;;;;;6491763;39;8935;-64
2024/03/21 15:15:29;;;;;;;;;25.25;19.75;;;;;;;;6491872;39;9100;-61
2024/03/21 15:21:40;;;;;;;;;25.25;24.00;;;;;;;;6492604;39;8905;-65
2024/03/21 15:27:53;;;;;;;;;26.25;21.00;;;;;;;;6491849;46;8987;-63
2024/03/21 15:34:02;;;;;;;;;28.25;23.75;;;;;;;;6492608;46;9064;-62
2024/03/21 15:40:09;;;;;;;;;28.00;25.00;;;;;;;;6487598;36;440693;-61
2024/03/21 15:46:39;;;;;;;;;25.50;24.00;;;;;;;;6492247;39;8926;-63
2024/03/21 15:52:53;;;;;;;;;24.25;23.75;;;;;;;;6492816;39;8914;-62
2024/03/21 15:59:07;;;;;;;;;16.50;16.25;;;;;;;;6491578;39;9002;-63
2024/03/21 16:05:22;;;;;;;;;22.75;22.00;;;;;;;;6492388;39;8967;-63
2024/03/21 16:11:27;;;;;;;;;30.50;27.25;;;;;;;;6490126;46;8915;-63
2024/03/21 16:17:44;;;;;;;;;24.50;24.50;;;;;;;;6489995;46;9047;-63
2024/03/21 16:23:53;;;;;;;;;18.50;16.50;;;;;;;;6489924;39;8962;-63
2024/03/21 16:30:01;;;;;;;;;22.50;17.75;;;;;;;;6490626;31;9427;-63
2024/03/21 16:36:16;;;;;;;;;24.25;20.50;;;;;;;;6489753;39;8962;-61
2024/03/21 16:42:33;;;;;;;;;22.50;21.00;;;;;;;;6490555;31;8919;-62
2024/03/21 16:48:44;;;;;;;;;18.75;17.50;;;;;;;;6490698;39;8981;-63
2024/03/21 16:54:57;;;;;;;;;18.25;15.25;;;;;;;;6489309;39;8934;-64
2024/03/21 17:01:15;;;;;;;;;16.75;15.00;;;;;;;;6488212;47;8984;-63
2024/03/21 17:07:18;;;;;;;;;19.25;19.25;;;;;;;;6489624;39;9098;-62
2024/03/21 17:13:21;;;;;;;;;13.50;11.75;;;;;;;;6489710;39;8914;-59
2024/03/21 17:19:23;;;;;;;;;23.00;19.00;;;;;;;;6488708;39;8931;-59
2024/03/21 17:25:25;;;;;;;;;21.75;20.00;;;;;;;;6488611;39;8958;-60
2024/03/21 17:31:31;;;;;;;;;19.00;17.75;;;;;;;;6489120;47;8931;-60
2024/03/21 17:37:32;;;;;;;;;15.25;15.25;;;;;;;;6487818;39;8927;-60
2024/03/21 17:43:34;;;;;;;;;17.00;13.75;;;;;;;;6489332;39;9849;-60
2024/03/21 17:49:36;;;;;;;;;14.00;11.25;;;;;;;;6490826;46;8998;-61
2024/03/21 17:55:39;;;;;;;;;21.75;14.50;;;;;;;;6490645;39;8926;-59
2024/03/21 18:01:42;;;;;;;;;15.25;13.25;;;;;;;;6491049;39;8891;-63
2024/03/21 18:07:44;;;;;;;;;14.75;13.00;;;;;;;;6490894;39;9645;-60
2024/03/21 18:13:46;;;;;;;;;12.50;11.25;;;;;;;;6490889;46;8935;-60
2024/03/21 18:19:47;;;;;;;;;13.25;12.75;;;;;;;;6490979;39;9046;-61
2024/03/21 18:25:53;;;;;;;;;15.50;11.25;;;;;;;;6490413;39;8887;-60
2024/03/21 18:31:57;;;;;;;;;13.75;12.75;;;;;;;;6490930;31;8958;-60
2024/03/21 18:37:58;;;;;;;;;21.25;17.75;;;;;;;;6490679;39;8959;-63
2024/03/21 18:43:59;;;;;;;;;16.75;16.75;;;;;;;;6490812;39;8887;-60
2024/03/21 18:50:03;;;;;;;;;16.50;13.50;;;;;;;;6491049;39;8983;-61
2024/03/21 18:56:05;;;;;;;;;15.75;13.00;;;;;;;;6489455;46;9042;-60
2024/03/21 19:02:05;;;;;;;;;13.00;12.50;;;;;;;;6490794;31;8931;-58
2024/03/21 19:08:07;;;;;;;;;19.50;16.00;;;;;;;;6491273;31;8927;-59
2024/03/21 19:14:08;;;;;;;;;12.50;12.00;;;;;;;;6489415;36;286819;-60
2024/03/21 19:20:10;;;;;;;;;17.25;16.25;;;;;;;;6490219;39;8851;-59
2024/03/21 19:26:10;;;;;;;;;16.00;14.75;;;;;;;;6490015;31;8927;-61
2024/03/21 19:32:12;;;;;;;;;21.00;19.75;;;;;;;;6489833;39;9530;-59
2024/03/21 19:38:13;;;;;;;;;17.75;17.50;;;;;;;;6490965;31;8887;-59
2024/03/21 19:44:16;;;;;;;;;22.50;16.50;;;;;;;;6490047;39;8977;-59
2024/03/21 19:50:20;;;;;;;;;15.25;15.25;;;;;;;;6490088;39;8863;-60
2024/03/21 19:56:21;;;;;;;;;19.00;16.00;;;;;;;;6489462;31;8950;-60
2024/03/21 20:02:24;;;;;;;;;20.00;16.75;;;;;;;;6490185;39;8911;-60
2024/03/21 20:08:25;;;;;;;;;15.00;13.00;;;;;;;;6490097;39;9539;-61
2024/03/21 20:14:26;;;;;;;;;16.00;16.00;;;;;;;;6489497;46;8964;-62
2024/03/21 20:20:29;;;;;;;;;19.00;16.00;;;;;;;;6493093;36;8929;-59
2024/03/21 20:26:35;;;;;;;;;17.25;14.00;;;;;;;;6488942;46;8888;-59
2024/03/21 20:32:40;;;;;;;;;15.25;13.50;;;;;;;;6489639;39;9014;-60
2024/03/21 20:38:41;;;;;;;;;17.00;16.50;;;;;;;;6489496;39;8956;-60
2024/03/21 20:44:44;;;;;;;;;24.25;17.25;;;;;;;;6489222;46;8916;-61
2024/03/21 20:50:48;;;;;;;;;23.00;18.50;;;;;;;;6501871;31;8867;-61
2024/03/21 20:56:51;;;;;;;;;23.00;18.25;;;;;;;;6488684;47;9026;-60
2024/03/21 21:02:53;;;;;;;;;23.75;21.25;;;;;;;;6488808;47;9045;-61
2024/03/21 21:08:54;;;;;;;;;23.50;20.25;;;;;;;;6488849;39;9026;-60
2024/03/21 21:14:55;;;;;;;;;18.25;16.25;;;;;;;;6489029;47;8887;-59
2024/03/21 21:21:00;;;;;;;;;21.50;18.25;;;;;;;;6490221;46;8887;-59
2024/03/21 21:27:02;;;;;;;;;22.75;19.00;;;;;;;;6490518;46;8911;-60
2024/03/21 21:33:03;;;;;;;;;27.75;20.00;;;;;;;;6491647;46;8946;-60
2024/03/21 21:39:07;;;;;;;;;20.25;19.75;;;;;;;;6490836;39;8910;-59
2024/03/21 21:45:08;;;;;;;;;19.00;18.00;;;;;;;;6491537;39;9002;-60
2024/03/21 21:51:13;;;;;;;;;20.25;19.75;;;;;;;;6490990;46;8982;-59
2024/03/21 21:57:18;;;;;;;;;24.00;19.75;;;;;;;;6490383;32;9629;-59
2024/03/21 22:03:19;;;;;;;;;19.00;16.00;;;;;;;;6491746;39;9988;-60
2024/03/21 22:09:25;;;;;;;;;20.75;19.00;;;;;;;;6491170;39;8911;-60
2024/03/21 22:15:32;;;;;;;;;22.50;19.25;;;;;;;;6490728;46;8863;-59
2024/03/21 22:21:33;;;;;;;;;20.75;20.00;;;;;;;;6491028;39;8964;-61
2024/03/21 22:27:34;;;;;;;;;19.25;16.00;;;;;;;;6490250;31;9002;-60
2024/03/21 22:33:39;;;;;;;;;22.25;17.50;;;;;;;;6490902;39;8922;-62
2024/03/21 22:39:41;;;;;;;;;20.00;18.50;;;;;;;;6490910;39;8796;-58
2024/03/21 22:45:42;;;;;;;;;23.75;21.75;;;;;;;;6490024;46;8895;-59
2024/03/21 22:51:44;;;;;;;;;26.25;23.50;;;;;;;;6490241;46;9006;-59
2024/03/21 22:57:51;;;;;;;;;20.00;19.75;;;;;;;;6489420;31;8955;-59
2024/03/21 23:03:52;;;;;;;;;23.00;16.75;;;;;;;;6490365;46;8942;-61
2024/03/21 23:09:53;;;;;;;;;24.25;21.75;;;;;;;;6490335;39;9560;-59
2024/03/21 23:15:54;;;;;;;;;33.00;26.00;;;;;;;;6489250;39;8980;-61
2024/03/21 23:21:55;;;;;;;;;26.50;24.00;;;;;;;;6490586;39;8996;-60
2024/03/21 23:27:57;;;;;;;;;20.75;20.75;;;;;;;;6490067;39;9783;-60
2024/03/21 23:33:58;;;;;;;;;33.00;26.75;;;;;;;;6490903;39;8970;-59
2024/03/21 23:40:04;;;;;;;;;30.50;25.00;;;;;;;;6490149;39;9619;-60
2024/03/21 23:46:07;;;;;;;;;22.25;19.50;;;;;;;;6489415;31;8955;-60
2024/03/21 23:52:09;;;;;;;;;31.00;24.50;;;;;;;;6490443;39;8900;-59
2024/03/21 23:58:13;;;;;;;;;29.75;27.50;;;;;;;;6489691;39;8872;-59
